sensor_id;sensor_type;location;lat;lon;timestamp;temperature;humidity
18218;DHT22;9234;49.344;11.120;2023-10-31T00:00:00;13.10;99.90
18218;DHT22;9234;49.344;11.120;2023-10-31T00:02:31;13.10;99.90
18218;DHT22;9234;49.344;11.120;2023-10-31T00:05:00;13.10;99.90
18218;DHT22;9234;49.344;11.120;2023-10-31T00:07:28;13.10;99.90
18218;DHT22;9234;49.344;11.120;2023-10-31T00:09:57;13.10;99.90
18218;DHT22;9234;49.344;11.120;2023-10-31T00:12:25;13.00;99.90
18218;DHT22;9234;49.344;11.120;2023-10-31T00:14:54;13.10;99.90
18218;DHT22;9234;49.344;11.120;2023-10-31T00:17:22;13.00;99.90
18218;DHT22;9234;49.344;11.120;2023-10-31T00:19:52;13.00;99.90
18218;DHT22;9234;49.344;11.120;2023-10-31T00:22:20;13.00;99.90
18218;DHT22;9234;49.344;11.120;2023-10-31T00:24:49;13.00;99.90
18218;DHT22;9234;49.344;11.120;2023-10-31T00:27:17;13.00;99.90
18218;DHT22;9234;49.344;11.120;2023-10-31T00:29:46;13.00;99.90
18218;DHT22;9234;49.344;11.120;2023-10-31T00:32:14;13.00;99.90
18218;DHT22;9234;49.344;11.120;2023-10-31T00:34:42;12.90;99.90
18218;DHT22;9234;49.344;11.120;2023-10-31T00:37:12;12.90;99.90
18218;DHT22;9234;49.344;11.120;2023-10-31T00:39:40;12.90;99.90
18218;DHT22;9234;49.344;11.120;2023-10-31T00:42:09;12.90;99.90
18218;DHT22;9234;49.344;11.120;2023-10-31T00:44:37;12.90;99.90
18218;DHT22;9234;49.344;11.120;2023-10-31T00:47:05;12.90;99.90
18218;DHT22;9234;49.344;11.120;2023-10-31T00:49:34;12.90;99.90
18218;DHT22;9234;49.344;11.120;2023-10-31T00:52:03;12.90;99.90
18218;DHT22;9234;49.344;11.120;2023-10-31T00:54:33;12.80;99.90
18218;DHT22;9234;49.344;11.120;2023-10-31T00:57:01;12.80;99.90
18218;DHT22;9234;49.344;11.120;2023-10-31T00:59:30;12.80;99.90
18218;DHT22;9234;49.344;11.120;2023-10-31T01:01:58;12.80;99.90
18218;DHT22;9234;49.344;11.120;2023-10-31T01:04:26;12.80;99.90
18218;DHT22;9234;49.344;11.120;2023-10-31T01:06:55;12.80;99.90
18218;DHT22;9234;49.344;11.120;2023-10-31T01:09:23;12.80;99.90
18218;DHT22;9234;49.344;11.120;2023-10-31T01:11:53;12.80;99.90
18218;DHT22;9234;49.344;11.120;2023-10-31T01:14:22;12.80;99.90
18218;DHT22;9234;49.344;11.120;2023-10-31T01:16:50;12.70;99.90
18218;DHT22;9234;49.344;11.120;2023-10-31T01:19:18;12.70;99.90
18218;DHT22;9234;49.344;11.120;2023-10-31T01:21:46;12.70;99.90
18218;DHT22;9234;49.344;11.120;2023-10-31T01:24:15;12.70;99.90
18218;DHT22;9234;49.344;11.120;2023-10-31T01:26:43;12.70;99.90
18218;DHT22;9234;49.344;11.120;2023-10-31T01:29:12;12.70;99.90
18218;DHT22;9234;49.344;11.120;2023-10-31T01:31:41;12.70;99.90
18218;DHT22;9234;49.344;11.120;2023-10-31T01:34:25;12.70;99.90
18218;DHT22;9234;49.344;11.120;2023-10-31T01:36:53;12.70;99.90
18218;DHT22;9234;49.344;11.120;2023-10-31T01:39:21;12.70;99.90
18218;DHT22;9234;49.344;11.120;2023-10-31T01:41:50;12.60;99.90
18218;DHT22;9234;49.344;11.120;2023-10-31T01:44:20;12.60;99.90
18218;DHT22;9234;49.344;11.120;2023-10-31T01:46:49;12.70;99.90
18218;DHT22;9234;49.344;11.120;2023-10-31T01:49:17;12.70;99.90
18218;DHT22;9234;49.344;11.120;2023-10-31T01:51:46;12.60;99.90
18218;DHT22;9234;49.344;11.120;2023-10-31T01:54:15;12.60;99.90
18218;DHT22;9234;49.344;11.120;2023-10-31T01:56:47;12.60;99.90
18218;DHT22;9234;49.344;11.120;2023-10-31T01:59:17;12.70;99.90
18218;DHT22;9234;49.344;11.120;2023-10-31T02:01:48;12.60;99.90
18218;DHT22;9234;49.344;11.120;2023-10-31T02:04:17;12.60;99.90
18218;DHT22;9234;49.344;11.120;2023-10-31T02:06:45;12.70;99.90
18218;DHT22;9234;49.344;11.120;2023-10-31T02:09:14;12.60;99.90
18218;DHT22;9234;49.344;11.120;2023-10-31T02:11:42;12.60;99.90
18218;DHT22;9234;49.344;11.120;2023-10-31T02:14:10;12.60;99.90
18218;DHT22;9234;49.344;11.120;2023-10-31T02:16:40;12.60;99.90
18218;DHT22;9234;49.344;11.120;2023-10-31T02:19:09;12.60;99.90
18218;DHT22;9234;49.344;11.120;2023-10-31T02:21:41;12.60;99.90
18218;DHT22;9234;49.344;11.120;2023-10-31T02:24:09;12.60;99.90
18218;DHT22;9234;49.344;11.120;2023-10-31T02:26:37;12.60;99.90
18218;DHT22;9234;49.344;11.120;2023-10-31T02:29:06;12.60;99.90
18218;DHT22;9234;49.344;11.120;2023-10-31T02:31:34;12.60;99.90
18218;DHT22;9234;49.344;11.120;2023-10-31T02:34:02;12.50;99.90
18218;DHT22;9234;49.344;11.120;2023-10-31T02:36:31;12.40;99.90
18218;DHT22;9234;49.344;11.120;2023-10-31T02:39:02;12.30;99.90
18218;DHT22;9234;49.344;11.120;2023-10-31T02:41:31;12.20;99.90
18218;DHT22;9234;49.344;11.120;2023-10-31T02:43:59;12.20;99.90
18218;DHT22;9234;49.344;11.120;2023-10-31T02:46:27;12.10;99.90
18218;DHT22;9234;49.344;11.120;2023-10-31T02:48:55;12.00;99.90
18218;DHT22;9234;49.344;11.120;2023-10-31T02:51:23;11.90;99.90
18218;DHT22;9234;49.344;11.120;2023-10-31T02:53:52;11.80;99.90
18218;DHT22;9234;49.344;11.120;2023-10-31T02:56:21;11.80;99.90
18218;DHT22;9234;49.344;11.120;2023-10-31T02:58:50;11.80;99.90
18218;DHT22;9234;49.344;11.120;2023-10-31T03:01:18;11.70;99.90
18218;DHT22;9234;49.344;11.120;2023-10-31T03:03:47;11.70;99.90
18218;DHT22;9234;49.344;11.120;2023-10-31T03:06:15;11.70;99.90
18218;DHT22;9234;49.344;11.120;2023-10-31T03:08:44;11.70;99.90
18218;DHT22;9234;49.344;11.120;2023-10-31T03:11:22;11.70;99.90
18218;DHT22;9234;49.344;11.120;2023-10-31T03:13:50;11.70;99.90
18218;DHT22;9234;49.344;11.120;2023-10-31T03:16:19;11.60;99.90
18218;DHT22;9234;49.344;11.120;2023-10-31T03:18:48;11.60;99.90
18218;DHT22;9234;49.344;11.120;2023-10-31T03:21:17;11.60;99.90
18218;DHT22;9234;49.344;11.120;2023-10-31T03:23:47;11.60;99.90
18218;DHT22;9234;49.344;11.120;2023-10-31T03:26:16;11.60;99.90
18218;DHT22;9234;49.344;11.120;2023-10-31T03:28:46;11.50;99.90
18218;DHT22;9234;49.344;11.120;2023-10-31T03:31:16;11.50;99.90
18218;DHT22;9234;49.344;11.120;2023-10-31T03:33:44;11.50;99.90
18218;DHT22;9234;49.344;11.120;2023-10-31T03:36:13;11.40;99.90
18218;DHT22;9234;49.344;11.120;2023-10-31T03:38:41;11.40;99.90
18218;DHT22;9234;49.344;11.120;2023-10-31T03:41:10;11.40;99.90
18218;DHT22;9234;49.344;11.120;2023-10-31T03:43:40;11.40;99.90
18218;DHT22;9234;49.344;11.120;2023-10-31T03:46:11;11.40;99.90
18218;DHT22;9234;49.344;11.120;2023-10-31T03:48:39;11.30;99.90
18218;DHT22;9234;49.344;11.120;2023-10-31T03:51:07;11.30;99.90
18218;DHT22;9234;49.344;11.120;2023-10-31T03:53:36;11.30;99.90
18218;DHT22;9234;49.344;11.120;2023-10-31T03:56:05;11.30;99.90
18218;DHT22;9234;49.344;11.120;2023-10-31T03:58:33;11.20;99.90
18218;DHT22;9234;49.344;11.120;2023-10-31T04:01:02;11.20;99.90
18218;DHT22;9234;49.344;11.120;2023-10-31T04:03:32;11.20;99.90
18218;DHT22;9234;49.344;11.120;2023-10-31T04:06:00;11.20;99.90
18218;DHT22;9234;49.344;11.120;2023-10-31T04:08:28;11.20;99.90
18218;DHT22;9234;49.344;11.120;2023-10-31T04:10:57;11.20;99.90
18218;DHT22;9234;49.344;11.120;2023-10-31T04:13:25;11.10;99.90
18218;DHT22;9234;49.344;11.120;2023-10-31T04:15:53;11.10;99.90
18218;DHT22;9234;49.344;11.120;2023-10-31T04:18:23;11.10;99.90
18218;DHT22;9234;49.344;11.120;2023-10-31T04:20:53;11.00;99.90
18218;DHT22;9234;49.344;11.120;2023-10-31T04:23:21;11.00;99.90
18218;DHT22;9234;49.344;11.120;2023-10-31T04:25:50;10.90;99.90
18218;DHT22;9234;49.344;11.120;2023-10-31T04:28:19;10.90;99.90
18218;DHT22;9234;49.344;11.120;2023-10-31T04:30:48;10.90;99.90
18218;DHT22;9234;49.344;11.120;2023-10-31T04:33:16;10.80;99.90
18218;DHT22;9234;49.344;11.120;2023-10-31T04:35:45;10.80;99.90
18218;DHT22;9234;49.344;11.120;2023-10-31T04:38:14;10.80;99.90
18218;DHT22;9234;49.344;11.120;2023-10-31T04:40:42;10.70;99.90
18218;DHT22;9234;49.344;11.120;2023-10-31T04:43:11;10.70;99.90
18218;DHT22;9234;49.344;11.120;2023-10-31T04:45:40;10.70;99.90
18218;DHT22;9234;49.344;11.120;2023-10-31T04:48:09;10.70;99.90
18218;DHT22;9234;49.344;11.120;2023-10-31T04:50:37;10.70;99.90
18218;DHT22;9234;49.344;11.120;2023-10-31T04:53:05;10.60;99.90
18218;DHT22;9234;49.344;11.120;2023-10-31T04:55:36;10.60;99.90
18218;DHT22;9234;49.344;11.120;2023-10-31T04:58:04;10.60;99.90
18218;DHT22;9234;49.344;11.120;2023-10-31T05:00:33;10.50;99.90
18218;DHT22;9234;49.344;11.120;2023-10-31T05:03:01;10.50;99.90
18218;DHT22;9234;49.344;11.120;2023-10-31T05:05:31;10.50;99.90
18218;DHT22;9234;49.344;11.120;2023-10-31T05:08:00;10.50;99.90
18218;DHT22;9234;49.344;11.120;2023-10-31T05:10:28;10.40;99.90
18218;DHT22;9234;49.344;11.120;2023-10-31T05:13:00;10.40;99.90
18218;DHT22;9234;49.344;11.120;2023-10-31T05:15:29;10.40;99.90
18218;DHT22;9234;49.344;11.120;2023-10-31T05:17:58;10.40;99.90
18218;DHT22;9234;49.344;11.120;2023-10-31T05:20:26;10.40;99.90
18218;DHT22;9234;49.344;11.120;2023-10-31T05:22:54;10.40;99.90
18218;DHT22;9234;49.344;11.120;2023-10-31T05:25:23;10.40;99.90
18218;DHT22;9234;49.344;11.120;2023-10-31T05:27:51;10.40;99.90
18218;DHT22;9234;49.344;11.120;2023-10-31T05:30:21;10.40;99.90
18218;DHT22;9234;49.344;11.120;2023-10-31T05:32:49;10.40;99.90
18218;DHT22;9234;49.344;11.120;2023-10-31T05:35:18;10.40;99.90
18218;DHT22;9234;49.344;11.120;2023-10-31T05:37:47;10.40;99.90
18218;DHT22;9234;49.344;11.120;2023-10-31T05:40:16;10.40;99.90
18218;DHT22;9234;49.344;11.120;2023-10-31T05:42:44;10.40;99.90
18218;DHT22;9234;49.344;11.120;2023-10-31T05:45:13;10.40;99.90
18218;DHT22;9234;49.344;11.120;2023-10-31T05:47:42;10.40;99.90
18218;DHT22;9234;49.344;11.120;2023-10-31T05:50:11;10.40;99.90
18218;DHT22;9234;49.344;11.120;2023-10-31T05:52:39;10.30;99.90
18218;DHT22;9234;49.344;11.120;2023-10-31T05:55:07;10.40;99.90
18218;DHT22;9234;49.344;11.120;2023-10-31T05:57:36;10.40;99.90
18218;DHT22;9234;49.344;11.120;2023-10-31T06:00:05;10.30;99.90
18218;DHT22;9234;49.344;11.120;2023-10-31T06:02:38;10.40;99.90
18218;DHT22;9234;49.344;11.120;2023-10-31T06:05:08;10.30;99.90
18218;DHT22;9234;49.344;11.120;2023-10-31T06:07:36;10.30;99.90
18218;DHT22;9234;49.344;11.120;2023-10-31T06:10:06;10.30;99.90
18218;DHT22;9234;49.344;11.120;2023-10-31T06:12:35;10.30;99.90
18218;DHT22;9234;49.344;11.120;2023-10-31T06:15:03;10.30;99.90
18218;DHT22;9234;49.344;11.120;2023-10-31T06:17:32;10.30;99.90
18218;DHT22;9234;49.344;11.120;2023-10-31T06:20:01;10.30;99.90
18218;DHT22;9234;49.344;11.120;2023-10-31T06:22:31;10.20;99.90
18218;DHT22;9234;49.344;11.120;2023-10-31T06:25:00;10.30;99.90
18218;DHT22;9234;49.344;11.120;2023-10-31T06:27:28;10.20;99.90
18218;DHT22;9234;49.344;11.120;2023-10-31T06:29:57;10.20;99.90
18218;DHT22;9234;49.344;11.120;2023-10-31T06:32:45;10.20;99.90
18218;DHT22;9234;49.344;11.120;2023-10-31T06:35:13;10.20;99.90
18218;DHT22;9234;49.344;11.120;2023-10-31T06:37:43;10.30;99.90
18218;DHT22;9234;49.344;11.120;2023-10-31T06:40:12;10.30;99.90
18218;DHT22;9234;49.344;11.120;2023-10-31T06:42:40;10.30;99.90
18218;DHT22;9234;49.344;11.120;2023-10-31T06:45:09;10.40;99.90
18218;DHT22;9234;49.344;11.120;2023-10-31T06:47:37;10.30;99.90
18218;DHT22;9234;49.344;11.120;2023-10-31T06:50:08;10.40;99.90
18218;DHT22;9234;49.344;11.120;2023-10-31T06:52:37;10.40;99.90
18218;DHT22;9234;49.344;11.120;2023-10-31T06:55:07;10.50;99.90
18218;DHT22;9234;49.344;11.120;2023-10-31T06:57:36;10.50;99.90
18218;DHT22;9234;49.344;11.120;2023-10-31T07:00:06;10.60;99.90
18218;DHT22;9234;49.344;11.120;2023-10-31T07:02:36;10.60;99.90
18218;DHT22;9234;49.344;11.120;2023-10-31T07:05:05;10.70;99.90
18218;DHT22;9234;49.344;11.120;2023-10-31T07:07:34;10.70;99.90
18218;DHT22;9234;49.344;11.120;2023-10-31T07:10:03;10.70;99.90
18218;DHT22;9234;49.344;11.120;2023-10-31T07:12:33;10.70;99.90
18218;DHT22;9234;49.344;11.120;2023-10-31T07:15:02;10.70;99.90
18218;DHT22;9234;49.344;11.120;2023-10-31T07:17:30;10.70;99.90
18218;DHT22;9234;49.344;11.120;2023-10-31T07:19:59;10.70;99.90
18218;DHT22;9234;49.344;11.120;2023-10-31T07:22:27;10.70;99.90
18218;DHT22;9234;49.344;11.120;2023-10-31T07:24:55;10.70;99.90
18218;DHT22;9234;49.344;11.120;2023-10-31T07:27:24;10.70;99.90
18218;DHT22;9234;49.344;11.120;2023-10-31T07:29:54;10.80;99.90
18218;DHT22;9234;49.344;11.120;2023-10-31T07:32:22;10.80;99.90
18218;DHT22;9234;49.344;11.120;2023-10-31T07:34:50;10.80;99.90
18218;DHT22;9234;49.344;11.120;2023-10-31T07:37:18;10.80;99.90
18218;DHT22;9234;49.344;11.120;2023-10-31T07:39:47;10.80;99.90
18218;DHT22;9234;49.344;11.120;2023-10-31T07:42:15;10.90;99.90
18218;DHT22;9234;49.344;11.120;2023-10-31T07:44:43;10.90;99.90
18218;DHT22;9234;49.344;11.120;2023-10-31T07:47:13;10.90;99.90
18218;DHT22;9234;49.344;11.120;2023-10-31T07:49:41;10.90;99.90
18218;DHT22;9234;49.344;11.120;2023-10-31T07:52:09;10.90;99.90
18218;DHT22;9234;49.344;11.120;2023-10-31T07:54:39;11.00;99.90
18218;DHT22;9234;49.344;11.120;2023-10-31T07:57:08;11.00;99.90
18218;DHT22;9234;49.344;11.120;2023-10-31T07:59:36;11.00;99.90
18218;DHT22;9234;49.344;11.120;2023-10-31T08:02:04;11.00;99.90
18218;DHT22;9234;49.344;11.120;2023-10-31T08:04:34;11.00;99.90
18218;DHT22;9234;49.344;11.120;2023-10-31T08:07:03;11.00;99.90
18218;DHT22;9234;49.344;11.120;2023-10-31T08:09:31;11.00;99.90
18218;DHT22;9234;49.344;11.120;2023-10-31T08:12:00;11.10;99.90
18218;DHT22;9234;49.344;11.120;2023-10-31T08:14:28;11.10;99.90
18218;DHT22;9234;49.344;11.120;2023-10-31T08:16:56;11.10;99.90
18218;DHT22;9234;49.344;11.120;2023-10-31T08:19:25;11.10;99.90
18218;DHT22;9234;49.344;11.120;2023-10-31T08:21:54;11.20;99.90
18218;DHT22;9234;49.344;11.120;2023-10-31T08:24:25;11.30;99.90
18218;DHT22;9234;49.344;11.120;2023-10-31T08:26:53;11.30;99.90
18218;DHT22;9234;49.344;11.120;2023-10-31T08:29:22;11.40;99.90
18218;DHT22;9234;49.344;11.120;2023-10-31T08:31:50;11.40;99.90
18218;DHT22;9234;49.344;11.120;2023-10-31T08:34:19;11.50;99.90
18218;DHT22;9234;49.344;11.120;2023-10-31T08:36:47;11.50;99.90
18218;DHT22;9234;49.344;11.120;2023-10-31T08:39:16;11.50;99.90
18218;DHT22;9234;49.344;11.120;2023-10-31T08:41:51;11.50;99.90
18218;DHT22;9234;49.344;11.120;2023-10-31T08:44:20;11.40;99.90
18218;DHT22;9234;49.344;11.120;2023-10-31T08:46:48;11.40;99.90
18218;DHT22;9234;49.344;11.120;2023-10-31T08:49:17;11.40;99.90
18218;DHT22;9234;49.344;11.120;2023-10-31T08:51:46;11.40;99.90
18218;DHT22;9234;49.344;11.120;2023-10-31T08:54:14;11.40;99.90
18218;DHT22;9234;49.344;11.120;2023-10-31T08:56:44;11.40;99.90
18218;DHT22;9234;49.344;11.120;2023-10-31T08:59:12;11.40;99.90
18218;DHT22;9234;49.344;11.120;2023-10-31T09:01:41;11.40;99.90
18218;DHT22;9234;49.344;11.120;2023-10-31T09:04:09;11.40;99.90
18218;DHT22;9234;49.344;11.120;2023-10-31T09:06:37;11.40;99.90
18218;DHT22;9234;49.344;11.120;2023-10-31T09:09:06;11.40;99.90
18218;DHT22;9234;49.344;11.120;2023-10-31T09:11:34;11.50;99.90
18218;DHT22;9234;49.344;11.120;2023-10-31T09:14:04;11.50;99.90
18218;DHT22;9234;49.344;11.120;2023-10-31T09:16:32;11.60;99.90
18218;DHT22;9234;49.344;11.120;2023-10-31T09:19:00;11.60;99.90
18218;DHT22;9234;49.344;11.120;2023-10-31T09:21:29;11.60;99.90
18218;DHT22;9234;49.344;11.120;2023-10-31T09:23:57;11.70;99.90
18218;DHT22;9234;49.344;11.120;2023-10-31T09:26:25;11.70;99.90
18218;DHT22;9234;49.344;11.120;2023-10-31T09:28:53;11.70;99.90
18218;DHT22;9234;49.344;11.120;2023-10-31T09:31:24;11.70;99.90
18218;DHT22;9234;49.344;11.120;2023-10-31T09:33:53;11.80;99.90
18218;DHT22;9234;49.344;11.120;2023-10-31T09:36:21;11.80;99.90
18218;DHT22;9234;49.344;11.120;2023-10-31T09:38:49;11.70;99.90
18218;DHT22;9234;49.344;11.120;2023-10-31T09:41:18;11.70;99.90
18218;DHT22;9234;49.344;11.120;2023-10-31T09:43:47;11.70;99.90
18218;DHT22;9234;49.344;11.120;2023-10-31T09:46:16;11.60;99.90
18218;DHT22;9234;49.344;11.120;2023-10-31T09:48:46;11.60;99.90
18218;DHT22;9234;49.344;11.120;2023-10-31T09:51:15;11.50;99.90
18218;DHT22;9234;49.344;11.120;2023-10-31T09:53:44;11.50;99.90
18218;DHT22;9234;49.344;11.120;2023-10-31T09:56:14;11.40;99.90
18218;DHT22;9234;49.344;11.120;2023-10-31T09:58:43;11.40;99.90
18218;DHT22;9234;49.344;11.120;2023-10-31T10:01:12;11.50;99.90
18218;DHT22;9234;49.344;11.120;2023-10-31T10:03:42;11.70;99.90
18218;DHT22;9234;49.344;11.120;2023-10-31T10:06:12;11.80;99.90
18218;DHT22;9234;49.344;11.120;2023-10-31T10:08:42;12.00;99.90
18218;DHT22;9234;49.344;11.120;2023-10-31T10:11:11;12.10;99.90
18218;DHT22;9234;49.344;11.120;2023-10-31T10:13:39;12.20;99.90
18218;DHT22;9234;49.344;11.120;2023-10-31T10:16:09;12.30;99.90
18218;DHT22;9234;49.344;11.120;2023-10-31T10:18:38;12.30;99.90
18218;DHT22;9234;49.344;11.120;2023-10-31T10:21:08;12.30;99.90
18218;DHT22;9234;49.344;11.120;2023-10-31T10:23:38;12.30;99.90
18218;DHT22;9234;49.344;11.120;2023-10-31T10:26:06;12.30;99.90
18218;DHT22;9234;49.344;11.120;2023-10-31T10:28:36;12.20;99.90
18218;DHT22;9234;49.344;11.120;2023-10-31T10:31:04;12.20;99.90
18218;DHT22;9234;49.344;11.120;2023-10-31T10:33:34;12.20;99.90
18218;DHT22;9234;49.344;11.120;2023-10-31T10:36:03;12.10;99.90
18218;DHT22;9234;49.344;11.120;2023-10-31T10:38:34;12.10;99.90
18218;DHT22;9234;49.344;11.120;2023-10-31T10:41:06;12.10;99.90
18218;DHT22;9234;49.344;11.120;2023-10-31T10:43:38;12.10;99.90
18218;DHT22;9234;49.344;11.120;2023-10-31T10:46:07;12.10;99.90
18218;DHT22;9234;49.344;11.120;2023-10-31T10:48:43;12.10;99.90
18218;DHT22;9234;49.344;11.120;2023-10-31T10:51:21;12.00;99.90
18218;DHT22;9234;49.344;11.120;2023-10-31T10:53:57;12.00;99.90
18218;DHT22;9234;49.344;11.120;2023-10-31T10:56:36;12.00;99.90
18218;DHT22;9234;49.344;11.120;2023-10-31T10:59:11;12.00;99.90
18218;DHT22;9234;49.344;11.120;2023-10-31T11:01:45;12.00;99.90
18218;DHT22;9234;49.344;11.120;2023-10-31T11:04:15;12.00;99.90
18218;DHT22;9234;49.344;11.120;2023-10-31T11:06:45;12.10;99.90
18218;DHT22;9234;49.344;11.120;2023-10-31T11:09:14;12.20;99.90
18218;DHT22;9234;49.344;11.120;2023-10-31T11:11:45;12.20;99.90
18218;DHT22;9234;49.344;11.120;2023-10-31T11:14:17;12.30;99.90
18218;DHT22;9234;49.344;11.120;2023-10-31T11:16:50;12.30;99.90
18218;DHT22;9234;49.344;11.120;2023-10-31T11:19:20;12.40;99.90
18218;DHT22;9234;49.344;11.120;2023-10-31T11:21:57;12.50;99.90
18218;DHT22;9234;49.344;11.120;2023-10-31T11:24:27;12.60;99.90
18218;DHT22;9234;49.344;11.120;2023-10-31T11:27:01;12.60;99.90
18218;DHT22;9234;49.344;11.120;2023-10-31T11:29:31;12.70;99.90
18218;DHT22;9234;49.344;11.120;2023-10-31T11:32:00;12.70;99.90
18218;DHT22;9234;49.344;11.120;2023-10-31T11:34:29;12.70;99.90
18218;DHT22;9234;49.344;11.120;2023-10-31T11:37:24;12.70;99.90
18218;DHT22;9234;49.344;11.120;2023-10-31T11:40:16;12.70;99.90
18218;DHT22;9234;49.344;11.120;2023-10-31T11:42:51;12.60;99.90
18218;DHT22;9234;49.344;11.120;2023-10-31T11:45:26;12.50;99.90
18218;DHT22;9234;49.344;11.120;2023-10-31T11:47:54;12.40;99.90
18218;DHT22;9234;49.344;11.120;2023-10-31T11:50:23;12.30;99.90
18218;DHT22;9234;49.344;11.120;2023-10-31T11:53:03;12.20;99.90
18218;DHT22;9234;49.344;11.120;2023-10-31T11:55:34;12.10;99.90
18218;DHT22;9234;49.344;11.120;2023-10-31T11:58:15;12.10;99.90
18218;DHT22;9234;49.344;11.120;2023-10-31T12:00:45;12.00;99.90
18218;DHT22;9234;49.344;11.120;2023-10-31T12:03:17;12.00;99.90
18218;DHT22;9234;49.344;11.120;2023-10-31T12:05:53;12.00;99.90
18218;DHT22;9234;49.344;11.120;2023-10-31T12:08:27;12.00;99.90
18218;DHT22;9234;49.344;11.120;2023-10-31T12:11:06;12.00;99.90
18218;DHT22;9234;49.344;11.120;2023-10-31T12:13:38;12.00;99.90
18218;DHT22;9234;49.344;11.120;2023-10-31T12:16:08;12.10;99.90
18218;DHT22;9234;49.344;11.120;2023-10-31T12:18:38;12.10;99.90
18218;DHT22;9234;49.344;11.120;2023-10-31T12:21:06;12.00;99.90
18218;DHT22;9234;49.344;11.120;2023-10-31T12:23:37;12.10;99.90
18218;DHT22;9234;49.344;11.120;2023-10-31T12:26:05;12.10;99.90
18218;DHT22;9234;49.344;11.120;2023-10-31T12:28:34;12.10;99.90
18218;DHT22;9234;49.344;11.120;2023-10-31T12:31:06;12.20;99.90
18218;DHT22;9234;49.344;11.120;2023-10-31T12:33:34;12.20;99.90
18218;DHT22;9234;49.344;11.120;2023-10-31T12:36:04;12.20;99.90
18218;DHT22;9234;49.344;11.120;2023-10-31T12:38:33;12.20;99.90
18218;DHT22;9234;49.344;11.120;2023-10-31T12:41:03;12.30;99.90
18218;DHT22;9234;49.344;11.120;2023-10-31T12:43:31;12.40;99.90
18218;DHT22;9234;49.344;11.120;2023-10-31T12:46:24;12.50;99.90
18218;DHT22;9234;49.344;11.120;2023-10-31T12:48:53;12.70;99.90
18218;DHT22;9234;49.344;11.120;2023-10-31T12:51:21;12.80;99.90
18218;DHT22;9234;49.344;11.120;2023-10-31T12:53:49;12.90;99.90
18218;DHT22;9234;49.344;11.120;2023-10-31T12:56:39;13.00;99.90
18218;DHT22;9234;49.344;11.120;2023-10-31T12:59:09;13.20;99.90
18218;DHT22;9234;49.344;11.120;2023-10-31T13:01:44;13.20;99.90
18218;DHT22;9234;49.344;11.120;2023-10-31T13:04:12;13.20;99.90
18218;DHT22;9234;49.344;11.120;2023-10-31T13:06:40;13.20;99.90
18218;DHT22;9234;49.344;11.120;2023-10-31T13:09:11;13.20;99.90
18218;DHT22;9234;49.344;11.120;2023-10-31T13:11:40;13.30;99.90
18218;DHT22;9234;49.344;11.120;2023-10-31T13:14:08;13.30;99.90
18218;DHT22;9234;49.344;11.120;2023-10-31T13:16:36;13.30;99.90
18218;DHT22;9234;49.344;11.120;2023-10-31T13:19:07;13.30;99.90
18218;DHT22;9234;49.344;11.120;2023-10-31T13:21:35;13.30;99.90
18218;DHT22;9234;49.344;11.120;2023-10-31T13:24:04;13.30;99.90
18218;DHT22;9234;49.344;11.120;2023-10-31T13:26:35;13.30;99.90
18218;DHT22;9234;49.344;11.120;2023-10-31T13:29:03;13.30;99.90
18218;DHT22;9234;49.344;11.120;2023-10-31T13:31:31;13.40;99.90
18218;DHT22;9234;49.344;11.120;2023-10-31T13:33:59;13.50;99.90
18218;DHT22;9234;49.344;11.120;2023-10-31T13:36:29;13.50;99.90
18218;DHT22;9234;49.344;11.120;2023-10-31T13:38:57;13.60;99.90
18218;DHT22;9234;49.344;11.120;2023-10-31T13:41:26;13.70;99.90
18218;DHT22;9234;49.344;11.120;2023-10-31T13:43:54;13.70;99.90
18218;DHT22;9234;49.344;11.120;2023-10-31T13:46:22;13.80;99.90
18218;DHT22;9234;49.344;11.120;2023-10-31T13:48:51;13.90;99.90
18218;DHT22;9234;49.344;11.120;2023-10-31T13:51:19;14.00;99.90
18218;DHT22;9234;49.344;11.120;2023-10-31T13:53:50;14.00;99.90
18218;DHT22;9234;49.344;11.120;2023-10-31T13:56:18;14.00;99.90
18218;DHT22;9234;49.344;11.120;2023-10-31T13:58:46;13.90;99.90
18218;DHT22;9234;49.344;11.120;2023-10-31T14:01:15;13.90;99.90
18218;DHT22;9234;49.344;11.120;2023-10-31T14:03:44;13.80;99.90
18218;DHT22;9234;49.344;11.120;2023-10-31T14:06:12;13.70;99.90
18218;DHT22;9234;49.344;11.120;2023-10-31T14:08:41;13.70;99.90
18218;DHT22;9234;49.344;11.120;2023-10-31T14:11:11;13.80;99.90
18218;DHT22;9234;49.344;11.120;2023-10-31T14:13:39;13.80;99.90
18218;DHT22;9234;49.344;11.120;2023-10-31T14:16:10;13.90;99.90
18218;DHT22;9234;49.344;11.120;2023-10-31T14:18:39;14.00;99.90
18218;DHT22;9234;49.344;11.120;2023-10-31T14:21:09;14.10;99.90
18218;DHT22;9234;49.344;11.120;2023-10-31T14:23:37;14.20;99.90
18218;DHT22;9234;49.344;11.120;2023-10-31T14:26:05;14.20;99.90
18218;DHT22;9234;49.344;11.120;2023-10-31T14:28:35;14.20;99.90
18218;DHT22;9234;49.344;11.120;2023-10-31T14:31:05;14.20;99.90
18218;DHT22;9234;49.344;11.120;2023-10-31T14:33:33;14.20;99.90
18218;DHT22;9234;49.344;11.120;2023-10-31T14:36:02;14.10;99.90
18218;DHT22;9234;49.344;11.120;2023-10-31T14:38:31;14.10;99.90
18218;DHT22;9234;49.344;11.120;2023-10-31T14:40:59;14.00;99.90
18218;DHT22;9234;49.344;11.120;2023-10-31T14:43:28;14.00;99.90
18218;DHT22;9234;49.344;11.120;2023-10-31T14:45:58;14.00;99.90
18218;DHT22;9234;49.344;11.120;2023-10-31T14:48:27;13.90;99.90
18218;DHT22;9234;49.344;11.120;2023-10-31T14:50:58;13.80;99.90
18218;DHT22;9234;49.344;11.120;2023-10-31T14:53:26;13.70;99.90
18218;DHT22;9234;49.344;11.120;2023-10-31T14:55:55;13.50;99.90
18218;DHT22;9234;49.344;11.120;2023-10-31T14:58:23;13.40;99.90
18218;DHT22;9234;49.344;11.120;2023-10-31T15:00:51;13.30;99.90
18218;DHT22;9234;49.344;11.120;2023-10-31T15:03:21;13.20;99.90
18218;DHT22;9234;49.344;11.120;2023-10-31T15:05:49;13.10;99.90
18218;DHT22;9234;49.344;11.120;2023-10-31T15:08:17;13.10;99.90
18218;DHT22;9234;49.344;11.120;2023-10-31T15:10:46;13.00;99.90
18218;DHT22;9234;49.344;11.120;2023-10-31T15:13:14;13.00;99.90
18218;DHT22;9234;49.344;11.120;2023-10-31T15:15:42;12.90;99.90
18218;DHT22;9234;49.344;11.120;2023-10-31T15:18:11;12.80;99.90
18218;DHT22;9234;49.344;11.120;2023-10-31T15:20:41;12.80;99.90
18218;DHT22;9234;49.344;11.120;2023-10-31T15:23:10;12.80;99.90
18218;DHT22;9234;49.344;11.120;2023-10-31T15:25:41;12.70;99.90
18218;DHT22;9234;49.344;11.120;2023-10-31T15:28:09;12.70;99.90
18218;DHT22;9234;49.344;11.120;2023-10-31T15:30:38;12.60;99.90
18218;DHT22;9234;49.344;11.120;2023-10-31T15:33:06;12.60;99.90
18218;DHT22;9234;49.344;11.120;2023-10-31T15:35:34;12.50;99.90
18218;DHT22;9234;49.344;11.120;2023-10-31T15:38:04;12.50;99.90
18218;DHT22;9234;49.344;11.120;2023-10-31T15:40:32;12.30;99.90
18218;DHT22;9234;49.344;11.120;2023-10-31T15:43:01;12.30;99.90